Accueil
METAR-TAF:

METAR-TAF

Aéroports :

Aéroport de Longyearbyen

Longyearbyen, Norvège

latitude: 78-15N, longitude: 015-28E, altitude: 2 m

Observation

Le bulletin a été fait il y a 21 minutes, à 07:50 UTC
Vent 9 kt de ouest/nord-ouest, variant entre ouest/sud-ouest et nord/nord-ouest
Température -10°C
Humidité 56%
Pression 1016 hPa
Visibilité 10 km ou plus
Quelques nuages à une hauteur de 3000 ft

METAR: ENSB 170750Z 29009KT 250V340 9999 FEW030 M10/M17 Q1016 NOSIG RMK WIND 1400FT 31005KT

Heure: 09:11 (08:11 UTC)

Prévision

Prévision valable du 17 à 06 UTC au 18 à 06 UTC
Vent 12 kt de ouest/nord-ouest
Visibilité 10 km ou plus
Nuages épars à une hauteur de 3500 ft
Temporairement
du 17 à 06 UTC au 17 à 15 UTC
Vent 5 kt de direction variable
Evoluant progressivement
du 17 à 15 UTC au 17 à 17 UTC
Vent 8 kt de est/sud-est

TAF: ENSB 1706/1806 29012KT 9999 SCT035 TEMPO 1706/1715 VRB05KT BECMG 1715/1717 12008KT

Observations et prévisions météorologiques de plus de 4000 aéroports (messages METAR et TAF).

Les stations disponibles sont représentées par des disques jaunes et rouges sur la carte.

Passer la souris dessus pour voir le nom de la station.

Cliquer dessus pour voir les observations et prévisions météorologiques.

Pour changer de carte: cliquez sur les boutons verts avec une croix noire pour zoomer, sur le bouton vert avec un tiret pour effectuer un zoom arrière, ou sur les flèches vertes pour les cartes adjacentes.


METAR-TAF: